createdAt,value
2019-03-28T00:00:41.281Z,20.70
2019-03-28T00:03:12.466Z,21.00
2019-03-28T00:05:42.588Z,21.90
2019-03-28T00:08:13.654Z,21.70
2019-03-28T00:10:43.568Z,21.73
2019-03-28T00:13:16.298Z,20.87
2019-03-28T00:15:47.385Z,21.40
2019-03-28T00:18:17.488Z,20.70
2019-03-28T00:20:50.897Z,21.83
2019-03-28T00:23:26.567Z,21.37
2019-03-28T00:25:57.839Z,21.17
2019-03-28T00:28:30.233Z,19.93
2019-03-28T00:31:02.688Z,21.77
2019-03-28T00:33:35.083Z,21.57
2019-03-28T00:36:05.060Z,20.87
2019-03-28T00:38:36.802Z,20.10
2019-03-28T00:41:07.776Z,22.03
2019-03-28T00:43:40.136Z,19.80
2019-03-28T00:46:11.488Z,20.73
2019-03-28T00:48:41.469Z,21.83
2019-03-28T00:51:12.585Z,20.87
2019-03-28T00:53:42.452Z,21.73
2019-03-28T00:56:14.938Z,21.30
2019-03-28T00:58:47.543Z,21.40
2019-03-28T01:01:17.647Z,22.07
2019-03-28T01:03:49.140Z,21.43
2019-03-28T01:06:21.600Z,21.83
2019-03-28T01:08:53.204Z,21.67
2019-03-28T01:11:24.961Z,21.87
2019-03-28T01:13:56.013Z,23.57
2019-03-28T01:16:26.985Z,22.63
2019-03-28T01:18:58.140Z,21.83
2019-03-28T01:21:28.214Z,22.07
2019-03-28T01:24:01.362Z,20.03
2019-03-28T01:26:34.355Z,21.33
2019-03-28T01:29:04.275Z,21.63
2019-03-28T01:31:37.605Z,22.60
2019-03-28T01:34:11.206Z,21.73
2019-03-28T01:36:41.273Z,19.93
2019-03-28T01:39:12.993Z,21.70
2019-03-28T01:41:44.004Z,21.30
2019-03-28T01:44:15.083Z,20.07
2019-03-28T01:46:47.223Z,20.27
2019-03-28T01:49:20.574Z,19.80
2019-03-28T01:51:51.648Z,20.47
2019-03-28T01:54:24.933Z,21.07
2019-03-28T01:57:09.925Z,20.03
2019-03-28T01:59:34.684Z,21.47
2019-03-28T02:02:06.046Z,21.63
2019-03-28T02:04:36.026Z,21.53
2019-03-28T02:07:08.557Z,20.73
2019-03-28T02:09:38.539Z,21.77
2019-03-28T02:12:10.856Z,21.20
2019-03-28T02:14:41.962Z,20.63
2019-03-28T02:17:31.441Z,21.67
2019-03-28T02:20:02.475Z,22.10
2019-03-28T02:22:35.755Z,20.90
2019-03-28T02:25:09.211Z,22.23
2019-03-28T02:27:40.364Z,21.57
2019-03-28T02:30:10.978Z,22.47
2019-03-28T02:32:42.073Z,22.07
2019-03-28T02:35:33.902Z,21.93
2019-03-28T02:38:07.129Z,21.97
2019-03-28T02:40:43.527Z,21.63
2019-03-28T02:43:18.075Z,23.03
2019-03-28T02:45:52.570Z,22.50
2019-03-28T02:48:23.892Z,25.40
2019-03-28T02:50:55.039Z,23.03
2019-03-28T02:53:25.006Z,24.03
2019-03-28T02:55:54.313Z,23.50
2019-03-28T02:58:27.785Z,23.00
2019-03-28T03:01:00.524Z,24.23
2019-03-28T03:03:32.990Z,24.13
2019-03-28T03:06:05.408Z,24.40
2019-03-28T03:08:36.820Z,25.60
2019-03-28T03:11:07.973Z,25.50
2019-03-28T03:13:39.133Z,27.07
2019-03-28T03:16:12.281Z,25.63
2019-03-28T03:18:42.222Z,26.20
2019-03-28T03:21:12.103Z,26.67
2019-03-28T03:23:41.878Z,26.50
2019-03-28T03:26:16.631Z,26.17
2019-03-28T03:28:48.989Z,27.70
2019-03-28T03:31:22.207Z,26.77
2019-03-28T03:33:54.866Z,27.70
2019-03-28T03:36:25.775Z,29.60
2019-03-28T03:38:56.664Z,27.53
2019-03-28T03:41:30.030Z,28.37
2019-03-28T03:44:01.086Z,27.87
2019-03-28T03:46:33.512Z,29.50
2019-03-28T03:49:06.712Z,29.73
2019-03-28T03:51:41.372Z,29.17
2019-03-28T03:54:15.316Z,28.93
2019-03-28T03:56:49.227Z,29.67
2019-03-28T03:59:22.150Z,27.50
2019-03-28T04:01:54.282Z,28.07
2019-03-28T04:04:27.615Z,28.77
2019-03-28T04:06:57.063Z,28.70
2019-03-28T04:09:32.211Z,29.07
2019-03-28T04:12:03.465Z,29.67
2019-03-28T04:14:35.855Z,29.70
2019-03-28T04:17:11.362Z,30.47
2019-03-28T04:19:44.209Z,30.13
2019-03-28T04:22:15.330Z,30.93
2019-03-28T04:24:47.713Z,29.40
2019-03-28T04:27:21.061Z,30.57
2019-03-28T04:29:52.761Z,29.67
2019-03-28T04:32:26.772Z,30.43
2019-03-28T04:34:57.662Z,30.63
2019-03-28T04:37:32.893Z,30.40
2019-03-28T04:40:08.755Z,30.33
2019-03-28T04:42:45.729Z,30.80
2019-03-28T04:45:19.097Z,30.10
2019-03-28T04:47:52.468Z,30.67
2019-03-28T04:50:43.467Z,32.37
2019-03-28T04:53:15.094Z,29.63
2019-03-28T04:55:47.229Z,30.83
2019-03-28T04:58:21.566Z,31.43
2019-03-28T05:00:53.778Z,29.30
2019-03-28T05:03:27.251Z,31.33
2019-03-28T05:06:02.009Z,31.80
2019-03-28T05:08:35.055Z,31.57
2019-03-28T05:11:07.583Z,30.33
2019-03-28T05:13:43.066Z,29.80
2019-03-28T05:16:20.200Z,32.73
2019-03-28T05:18:54.879Z,31.50
2019-03-28T05:24:21.840Z,30.17
2019-03-28T05:26:53.463Z,30.93
2019-03-28T05:29:26.491Z,31.52
2019-03-28T05:31:57.579Z,32.50
2019-03-28T05:34:31.181Z,30.47
2019-03-28T05:37:06.321Z,32.17
2019-03-28T05:39:36.367Z,32.50
2019-03-28T05:42:09.102Z,30.70
2019-03-28T05:44:40.252Z,32.20
2019-03-28T05:47:11.517Z,31.23
2019-03-28T05:49:44.375Z,31.30
2019-03-28T05:52:14.522Z,33.13
2019-03-28T05:54:44.262Z,30.70
2019-03-28T05:57:17.369Z,33.30
2019-03-28T05:59:48.430Z,32.70
2019-03-28T06:02:20.999Z,32.93
2019-03-28T06:04:51.246Z,31.90
2019-03-28T06:07:22.183Z,31.12
2019-03-28T06:09:54.890Z,33.60
2019-03-28T06:12:25.952Z,31.95
2019-03-28T06:14:59.237Z,31.97
2019-03-28T06:17:29.435Z,33.33
2019-03-28T06:20:06.571Z,34.03
2019-03-28T06:22:39.628Z,35.03
2019-03-28T06:25:13.182Z,34.47
2019-03-28T06:27:44.299Z,34.43
2019-03-28T06:30:14.642Z,33.80
2019-03-28T06:32:48.302Z,32.13
2019-03-28T06:35:19.513Z,31.23
2019-03-28T06:37:51.614Z,33.87
2019-03-28T06:40:21.596Z,31.83
2019-03-28T06:42:53.839Z,31.23
2019-03-28T06:45:25.695Z,31.67
2019-03-28T06:48:15.007Z,32.47
2019-03-28T06:50:48.839Z,30.67
2019-03-28T06:53:20.244Z,31.40
2019-03-28T06:55:51.438Z,29.57
2019-03-28T06:58:21.522Z,33.35
2019-03-28T07:00:53.932Z,31.53
2019-03-28T07:03:26.847Z,30.70
2019-03-28T07:05:57.100Z,32.67
2019-03-28T07:08:28.159Z,30.27
2019-03-28T07:11:02.507Z,31.23
2019-03-28T07:13:35.131Z,32.00
2019-03-28T07:16:05.285Z,32.40
2019-03-28T07:18:35.141Z,31.33
2019-03-28T07:21:05.621Z,29.43
2019-03-28T07:23:35.712Z,31.73
2019-03-28T07:26:11.010Z,35.35
2019-03-28T07:28:40.406Z,28.97
2019-03-28T07:31:11.335Z,66.10
2019-03-28T07:33:42.532Z,28.73
2019-03-28T07:36:14.258Z,29.73
2019-03-28T07:38:46.895Z,27.43
2019-03-28T07:41:21.441Z,27.07
2019-03-28T07:43:54.578Z,29.60
2019-03-28T07:46:26.037Z,27.07
2019-03-28T07:48:57.233Z,28.50
2019-03-28T07:51:29.514Z,29.13
2019-03-28T07:54:02.274Z,28.63
2019-03-28T07:56:42.189Z,31.37
2019-03-28T07:59:19.273Z,53.73
2019-03-28T08:01:51.550Z,115.03
2019-03-28T08:04:22.578Z,43.90
2019-03-28T08:06:54.792Z,36.33
2019-03-28T08:09:36.013Z,32.27
2019-03-28T08:11:59.107Z,25.97
2019-03-28T08:14:29.256Z,28.23
2019-03-28T08:17:01.277Z,40.10
2019-03-28T08:19:32.146Z,28.80
2019-03-28T08:22:04.510Z,25.90
2019-03-28T08:24:37.883Z,25.60
2019-03-28T08:27:14.675Z,25.53
2019-03-28T08:29:48.164Z,24.17
2019-03-28T08:32:22.412Z,23.18
2019-03-28T08:34:54.960Z,24.80
2019-03-28T08:37:27.858Z,23.07
2019-03-28T08:40:00.350Z,22.63
2019-03-28T08:42:31.463Z,20.53
2019-03-28T08:45:02.891Z,20.43
2019-03-28T08:47:33.751Z,22.33
2019-03-28T08:50:11.381Z,19.27
2019-03-28T08:52:40.434Z,19.80
2019-03-28T08:55:11.943Z,18.00
2019-03-28T08:57:46.398Z,19.00
2019-03-28T09:00:32.284Z,18.62
2019-03-28T09:02:53.066Z,17.50
2019-03-28T09:05:27.832Z,19.33
2019-03-28T09:08:00.557Z,22.70
2019-03-28T09:10:32.164Z,17.53
2019-03-28T09:13:02.018Z,27.33
2019-03-28T09:15:43.013Z,22.03
2019-03-28T09:18:08.765Z,19.40
2019-03-28T09:20:40.025Z,17.63
2019-03-28T09:23:11.372Z,17.63
2019-03-28T09:25:43.878Z,17.67
2019-03-28T09:28:17.306Z,19.97
2019-03-28T09:30:49.511Z,17.53
2019-03-28T09:33:22.591Z,17.17
2019-03-28T09:35:54.660Z,17.73
2019-03-28T09:38:26.930Z,15.53
2019-03-28T09:40:58.084Z,15.17
2019-03-28T09:43:34.224Z,13.90
2019-03-28T09:46:05.535Z,13.80
2019-03-28T09:48:37.057Z,13.23
2019-03-28T09:51:09.810Z,13.07
2019-03-28T09:53:48.202Z,12.13
2019-03-28T09:56:21.377Z,13.00
2019-03-28T09:58:53.697Z,17.40
2019-03-28T10:01:23.430Z,32.50
2019-03-28T10:03:55.774Z,14.57
2019-03-28T10:06:26.816Z,13.17
2019-03-28T10:09:03.169Z,15.67
2019-03-28T10:11:53.085Z,16.47
2019-03-28T10:14:27.252Z,12.00
2019-03-28T10:16:58.647Z,11.53
2019-03-28T10:22:18.783Z,11.90
2019-03-28T10:24:52.683Z,11.73
2019-03-28T10:27:24.566Z,9.30
2019-03-28T10:29:56.682Z,8.87
2019-03-28T10:32:30.478Z,9.83
2019-03-28T10:35:03.160Z,9.47
2019-03-28T10:37:34.785Z,9.17
2019-03-28T10:40:05.889Z,9.27
2019-03-28T10:42:38.891Z,17.63
2019-03-28T10:45:10.762Z,10.70
2019-03-28T10:47:42.154Z,29.37
2019-03-28T10:50:13.568Z,10.07
2019-03-28T10:52:45.603Z,9.73
2019-03-28T10:55:16.922Z,13.03
2019-03-28T10:57:49.575Z,15.10
2019-03-28T11:00:24.261Z,13.30
2019-03-28T11:02:56.107Z,18.73
2019-03-28T11:05:29.092Z,13.17
2019-03-28T11:07:58.322Z,10.07
2019-03-28T11:10:30.686Z,5.40
2019-03-28T11:13:01.629Z,7.37
2019-03-28T11:15:31.557Z,4.53
2019-03-28T11:18:02.980Z,27.57
2019-03-28T11:20:35.826Z,4.47
2019-03-28T11:23:11.228Z,4.33
2019-03-28T11:25:42.737Z,7.10
2019-03-28T11:28:15.750Z,2.77
2019-03-28T11:30:45.277Z,5.47
2019-03-28T11:33:16.482Z,4.45
2019-03-28T11:35:50.738Z,2.67
2019-03-28T11:38:23.587Z,1.57
2019-03-28T11:40:54.725Z,1.17
2019-03-28T11:43:28.930Z,2.40
2019-03-28T11:46:00.476Z,2.97
2019-03-28T11:48:32.935Z,2.73
2019-03-28T11:51:03.866Z,1.83
2019-03-28T11:53:33.160Z,12.20
2019-03-28T11:56:03.596Z,4.87
2019-03-28T11:58:36.852Z,1.93
2019-03-28T12:01:12.780Z,1.90
2019-03-28T12:03:43.649Z,2.17
2019-03-28T12:06:16.292Z,1.97
2019-03-28T12:08:47.665Z,2.30
2019-03-28T12:11:21.726Z,3.77
2019-03-28T12:13:52.732Z,23.13
2019-03-28T12:16:25.182Z,11.95
2019-03-28T12:19:00.174Z,51.33
2019-03-28T12:21:31.297Z,65.10
2019-03-28T12:24:02.169Z,8.87
2019-03-28T12:26:35.330Z,7.27
2019-03-28T12:29:07.762Z,11.77
2019-03-28T12:31:40.714Z,7.00
2019-03-28T12:34:10.773Z,5.17
2019-03-28T12:36:40.217Z,5.17
2019-03-28T12:39:11.385Z,8.07
2019-03-28T12:41:42.943Z,26.20
2019-03-28T12:44:14.181Z,61.93
2019-03-28T12:46:44.360Z,40.57
2019-03-28T12:49:17.004Z,6.90
2019-03-28T12:51:49.913Z,10.97
2019-03-28T12:54:19.821Z,4.20
2019-03-28T12:56:52.991Z,4.87
2019-03-28T12:59:26.097Z,13.03
2019-03-28T13:01:58.586Z,10.67
2019-03-28T13:04:50.313Z,6.17
2019-03-28T13:07:22.177Z,16.13
2019-03-28T13:09:55.368Z,24.87
2019-03-28T13:12:28.158Z,12.83
2019-03-28T13:15:02.082Z,16.93
2019-03-28T13:17:33.788Z,8.30
2019-03-28T13:20:04.091Z,9.60
2019-03-28T13:22:37.050Z,7.10
2019-03-28T13:25:29.050Z,8.27
2019-03-28T13:28:00.594Z,5.80
2019-03-28T13:30:31.610Z,5.40
2019-03-28T13:33:08.315Z,5.90
2019-03-28T13:35:38.777Z,13.77
2019-03-28T13:38:12.468Z,7.70
2019-03-28T13:40:47.212Z,11.33
2019-03-28T13:43:22.983Z,10.33
2019-03-28T13:45:55.708Z,13.03
2019-03-28T13:48:26.858Z,8.20
2019-03-28T13:51:00.398Z,7.27
2019-03-28T13:53:39.820Z,8.30
2019-03-28T13:56:15.361Z,6.50
2019-03-28T13:58:52.664Z,7.80
2019-03-28T14:01:26.860Z,6.37
2019-03-28T14:03:59.575Z,6.50
2019-03-28T14:06:32.918Z,7.67
2019-03-28T14:09:05.074Z,12.57
2019-03-28T14:11:40.565Z,7.40
2019-03-28T14:14:11.661Z,15.53
2019-03-28T14:16:45.583Z,49.93
2019-03-28T14:19:24.365Z,9.58
2019-03-28T14:21:55.564Z,14.30
2019-03-28T14:24:28.940Z,13.37
2019-03-28T14:26:58.974Z,10.47
2019-03-28T14:29:30.493Z,12.10
2019-03-28T14:32:01.714Z,8.93
2019-03-28T14:34:34.644Z,5.43
2019-03-28T14:37:06.558Z,5.23
2019-03-28T14:39:37.406Z,6.53
2019-03-28T14:42:07.555Z,9.43
2019-03-28T14:44:40.701Z,9.47
2019-03-28T14:47:13.262Z,5.75
2019-03-28T14:49:45.633Z,6.57
2019-03-28T14:52:20.955Z,6.60
2019-03-28T14:54:53.117Z,5.60
2019-03-28T14:57:23.180Z,5.60
2019-03-28T14:59:55.403Z,4.90
2019-03-28T15:02:26.648Z,4.77
2019-03-28T15:04:57.778Z,5.07
2019-03-28T15:07:31.743Z,24.43
2019-03-28T15:10:02.739Z,6.53
2019-03-28T15:12:37.256Z,6.53
2019-03-28T15:15:10.369Z,6.73
2019-03-28T15:17:44.807Z,9.13
2019-03-28T15:20:16.096Z,6.77
2019-03-28T15:22:47.493Z,8.23
2019-03-28T15:25:18.944Z,11.37
2019-03-28T15:27:51.293Z,11.87
2019-03-28T15:30:24.812Z,10.00
2019-03-28T15:32:57.380Z,9.10
2019-03-28T15:35:36.022Z,9.43
2019-03-28T15:38:07.337Z,6.83
2019-03-28T15:40:41.585Z,7.07
2019-03-28T15:43:11.679Z,6.20
2019-03-28T15:45:46.529Z,7.63
2019-03-28T15:48:17.527Z,10.50
2019-03-28T15:50:50.975Z,7.40
2019-03-28T15:53:25.798Z,7.47
2019-03-28T15:55:58.301Z,7.97
2019-03-28T15:58:31.208Z,8.03
2019-03-28T16:01:03.584Z,8.07
2019-03-28T16:03:38.116Z,7.90
2019-03-28T16:06:10.768Z,7.90
2019-03-28T16:08:44.141Z,8.30
2019-03-28T16:11:17.767Z,9.33
2019-03-28T16:13:48.598Z,8.13
2019-03-28T16:16:21.670Z,8.33
2019-03-28T16:18:51.616Z,7.83
2019-03-28T16:21:26.685Z,8.93
2019-03-28T16:23:57.779Z,9.00
2019-03-28T16:26:28.097Z,9.47
2019-03-28T16:28:58.642Z,10.17
2019-03-28T16:31:31.118Z,9.77
2019-03-28T16:34:07.491Z,11.13
2019-03-28T16:36:39.239Z,11.50
2019-03-28T16:39:12.509Z,10.80
2019-03-28T16:41:43.726Z,12.53
2019-03-28T16:44:12.955Z,12.40
2019-03-28T16:46:43.988Z,17.17
2019-03-28T16:49:13.883Z,16.97
2019-03-28T16:51:45.482Z,16.37
2019-03-28T16:54:31.968Z,19.17
2019-03-28T16:57:03.595Z,15.80
2019-03-28T16:59:36.085Z,17.27
2019-03-28T17:02:08.924Z,16.27
2019-03-28T17:04:41.603Z,16.30
2019-03-28T17:07:13.146Z,15.33
2019-03-28T17:09:44.375Z,16.83
2019-03-28T17:12:18.508Z,17.40
2019-03-28T17:14:51.820Z,18.57
2019-03-28T17:17:22.776Z,19.30
2019-03-28T17:19:53.952Z,25.93
2019-03-28T17:22:26.669Z,23.00
2019-03-28T17:24:57.393Z,21.80
2019-03-28T17:27:27.459Z,22.73
2019-03-28T17:30:00.624Z,23.63
2019-03-28T17:32:32.281Z,23.70
2019-03-28T17:35:03.807Z,25.60
2019-03-28T17:37:33.780Z,28.23
2019-03-28T17:40:06.225Z,26.43
2019-03-28T17:42:37.612Z,24.23
2019-03-28T17:45:10.069Z,22.60
2019-03-28T17:47:40.906Z,21.53
2019-03-28T17:50:13.074Z,19.73
2019-03-28T17:52:45.275Z,15.93
2019-03-28T17:55:20.515Z,15.33
2019-03-28T17:57:56.765Z,16.40
2019-03-28T18:00:32.870Z,20.30
2019-03-28T18:03:09.445Z,21.93
2019-03-28T18:05:40.481Z,24.40
2019-03-28T18:08:12.543Z,28.43
2019-03-28T18:10:45.883Z,28.57
2019-03-28T18:13:19.073Z,26.07
2019-03-28T18:15:50.954Z,23.70
2019-03-28T18:18:22.447Z,26.30
2019-03-28T18:20:53.829Z,36.87
2019-03-28T18:23:26.922Z,40.60
2019-03-28T18:26:00.629Z,50.33
2019-03-28T18:31:19.426Z,54.53
2019-03-28T18:33:49.254Z,64.83
2019-03-28T18:36:22.070Z,50.57
2019-03-28T18:39:00.527Z,24.51
2019-03-28T18:41:31.512Z,24.73
2019-03-28T18:44:02.589Z,27.33
2019-03-28T18:46:33.931Z,25.10
2019-03-28T18:49:05.363Z,35.60
2019-03-28T18:51:35.511Z,49.70
2019-03-28T18:54:08.974Z,41.77
2019-03-28T18:56:43.531Z,75.47
2019-03-28T18:59:18.055Z,106.93
2019-03-28T19:01:48.374Z,129.23
2019-03-28T19:04:19.946Z,113.65
2019-03-28T19:06:51.147Z,133.53
2019-03-28T19:09:23.323Z,172.25
2019-03-28T19:11:54.424Z,167.53
2019-03-28T19:14:25.411Z,162.40
2019-03-28T19:16:56.492Z,153.10
2019-03-28T19:19:38.580Z,159.23
2019-03-28T19:22:01.327Z,139.60
2019-03-28T19:24:33.237Z,97.97
2019-03-28T19:27:06.813Z,71.60
2019-03-28T19:29:37.414Z,34.93
2019-03-28T19:32:07.362Z,13.93
2019-03-28T19:34:38.477Z,13.43
2019-03-28T19:37:09.257Z,17.03
2019-03-28T19:39:41.726Z,16.17
2019-03-28T19:42:14.721Z,12.60
2019-03-28T19:44:45.941Z,11.57
2019-03-28T19:47:18.526Z,15.43
2019-03-28T19:49:48.464Z,34.13
2019-03-28T19:52:18.798Z,35.97
2019-03-28T19:54:49.926Z,30.80
2019-03-28T19:57:23.393Z,29.37
2019-03-28T19:59:58.625Z,28.70
2019-03-28T20:02:28.834Z,36.97
2019-03-28T20:05:01.455Z,47.43
2019-03-28T20:07:33.672Z,43.08
2019-03-28T20:10:16.129Z,44.37
2019-03-28T20:12:41.912Z,60.20
2019-03-28T20:15:12.343Z,73.83
2019-03-28T20:17:47.857Z,97.00
2019-03-28T20:20:17.112Z,114.07
2019-03-28T20:22:47.415Z,113.00
2019-03-28T20:25:17.253Z,155.20
2019-03-28T20:27:56.074Z,228.67
2019-03-28T20:30:28.659Z,181.03
2019-03-28T20:32:58.569Z,233.53
2019-03-28T20:35:29.674Z,208.10
2019-03-28T20:38:02.028Z,180.67
2019-03-28T20:40:36.327Z,175.10
2019-03-28T20:43:08.068Z,168.93
2019-03-28T20:45:40.673Z,128.43
2019-03-28T20:48:13.000Z,119.17
2019-03-28T20:50:43.940Z,125.63
2019-03-28T20:53:13.986Z,119.65
2019-03-28T20:55:44.576Z,123.70
2019-03-28T20:58:16.153Z,128.50
2019-03-28T21:00:50.749Z,130.43
2019-03-28T21:03:24.743Z,122.53
2019-03-28T21:05:54.860Z,96.37
2019-03-28T21:08:26.166Z,88.13
2019-03-28T21:10:59.728Z,85.43
2019-03-28T21:13:33.475Z,74.70
2019-03-28T21:16:08.414Z,56.50
2019-03-28T21:18:46.835Z,40.80
2019-03-28T21:21:21.541Z,46.25
2019-03-28T21:23:56.613Z,55.53
2019-03-28T21:26:31.467Z,37.97
2019-03-28T21:29:07.669Z,46.27
2019-03-28T21:31:49.961Z,66.63
2019-03-28T21:37:17.179Z,86.05
2019-03-28T21:39:51.910Z,99.03
2019-03-28T21:42:24.094Z,119.37
2019-03-28T21:45:00.956Z,124.63
2019-03-28T21:47:33.285Z,134.73
2019-03-28T21:50:08.468Z,111.83
2019-03-28T21:52:43.442Z,97.23
2019-03-28T21:55:17.600Z,99.33
2019-03-28T21:57:54.654Z,100.63
2019-03-28T22:00:28.905Z,89.60
2019-03-28T22:03:00.436Z,65.57
2019-03-28T22:05:32.568Z,72.80
2019-03-28T22:08:08.770Z,67.57
2019-03-28T22:10:44.633Z,69.43
2019-03-28T22:13:15.540Z,62.57
2019-03-28T22:15:50.975Z,65.97
2019-03-28T22:18:23.316Z,64.37
2019-03-28T22:20:57.233Z,68.83
2019-03-28T22:23:27.002Z,74.57
2019-03-28T22:26:01.099Z,75.40
2019-03-28T22:28:37.996Z,81.20
2019-03-28T22:31:11.219Z,56.30
2019-03-28T22:33:41.878Z,84.60
2019-03-28T22:36:13.213Z,82.47
2019-03-28T22:38:46.164Z,66.97
2019-03-28T22:41:18.137Z,87.37
2019-03-28T22:43:47.988Z,74.47
2019-03-28T22:46:21.129Z,77.83
2019-03-28T22:48:55.810Z,83.80
2019-03-28T22:51:26.673Z,75.00
2019-03-28T22:54:00.404Z,89.57
2019-03-28T22:56:32.662Z,105.80
2019-03-28T22:59:05.089Z,111.07
2019-03-28T23:01:35.358Z,131.30
2019-03-28T23:04:06.097Z,97.25
2019-03-28T23:06:39.000Z,75.15
2019-03-28T23:09:09.450Z,74.60
2019-03-28T23:11:40.670Z,77.23
2019-03-28T23:14:12.116Z,79.07
2019-03-28T23:16:44.647Z,78.00
2019-03-28T23:19:17.592Z,74.50
2019-03-28T23:21:50.855Z,73.70
2019-03-28T23:24:22.152Z,74.00
2019-03-28T23:27:14.690Z,69.77
2019-03-28T23:29:45.525Z,66.67
2019-03-28T23:32:18.295Z,56.50
2019-03-28T23:34:49.346Z,58.37
2019-03-28T23:37:24.880Z,53.73
2019-03-28T23:39:54.525Z,46.90
2019-03-28T23:42:25.780Z,51.37
2019-03-28T23:44:56.687Z,53.17
2019-03-28T23:47:27.588Z,55.58
2019-03-28T23:49:58.438Z,62.50
2019-03-28T23:52:30.648Z,67.30
2019-03-28T23:55:01.539Z,67.53
2019-03-28T23:57:31.500Z,58.40
